Time;durP1;ratioP1;P1;durP2;ratioP2;P2;SDS_P1;SDS_P2;PMS_P1;PMS_P2;Temp;Humidity;BMP_temperature;BMP_pressure;BME280_temperature;BME280_humidity;BME280_pressure;Samples;Min_cycle;Max_cycle;Signal;HPM_P1;HPM_P2
2022/01/18 00:01:12;;;;;;;18.13;5.25;;;;;;;;;;5052966;28;20028;-73
2022/01/18 00:03:39;;;;;;;18.45;5.45;;;;;;;;;;5051287;28;20056;-72
2022/01/18 00:06:06;;;;;;;15.15;5.22;;;;;;;;;;5052871;28;20143;-72
2022/01/18 00:08:33;;;;;;;18.98;5.68;;;;;;;;;;5051602;28;20024;-72
2022/01/18 00:11:01;;;;;;;14.77;4.75;;;;;;;;;;5051315;28;20053;-72
2022/01/18 00:13:41;;;;;;;18.75;5.18;;;;;;;;;;5052652;28;20058;-72
2022/01/18 00:18:36;;;;;;;18.98;5.35;;;;;;;;;;5052855;28;19905;-74
2022/01/18 00:23:33;;;;;;;;;;;;;;;;;;5053291;28;20029;-73
2022/01/18 00:26:00;;;;;;;17.80;5.32;;;;;;;;;;5051190;28;19948;-73
2022/01/18 00:28:30;;;;;;;20.65;5.43;;;;;;;;;;5052608;28;20031;-73
2022/01/18 00:36:29;;;;;;;18.17;5.47;;;;;;;;;;5052372;28;20393;-73
2022/01/18 00:38:56;;;;;;;20.38;5.90;;;;;;;;;;5052595;28;20023;-72
2022/01/18 00:41:25;;;;;;;20.17;4.95;;;;;;;;;;5051242;28;20032;-72
2022/01/18 00:43:53;;;;;;;16.20;5.60;;;;;;;;;;5052639;28;20028;-72
2022/01/18 00:46:20;;;;;;;19.48;4.97;;;;;;;;;;5052418;28;20039;-72
2022/01/18 00:48:47;;;;;;;17.15;5.32;;;;;;;;;;5052354;28;20060;-72
2022/01/18 00:51:15;;;;;;;19.85;5.55;;;;;;;;;;5051185;28;20474;-72
2022/01/18 00:53:43;;;;;;;14.77;4.50;;;;;;;;;;5052364;28;20024;-72
2022/01/18 00:58:39;;;;;;;16.27;4.63;;;;;;;;;;5055901;28;20386;-72
2022/01/18 01:01:06;;;;;;;15.70;4.95;;;;;;;;;;5054664;28;20079;-70
2022/01/18 01:03:35;;;;;;;19.30;5.45;;;;;;;;;;5054332;28;20046;-71
2022/01/18 01:06:03;;;;;;;19.35;5.25;;;;;;;;;;5055944;28;20021;-72
2022/01/18 01:08:30;;;;;;;18.38;5.03;;;;;;;;;;5055791;28;20435;-72
2022/01/18 01:10:57;;;;;;;14.15;4.18;;;;;;;;;;5055712;28;20474;-71
2022/01/18 01:13:27;;;;;;;16.48;4.88;;;;;;;;;;5054355;28;20025;-73
2022/01/18 01:16:28;;;;;;;18.48;5.53;;;;;;;;;;5055713;28;20474;-72
2022/01/18 01:19:24;;;;;;;16.45;4.47;;;;;;;;;;5055543;28;20017;-72
2022/01/18 01:44:22;;;;;;;16.23;3.83;;;;;;;;;;5054985;28;20174;-72
2022/01/18 01:46:49;;;;;;;13.90;4.90;;;;;;;;;;5055201;28;20073;-72
2022/01/18 01:49:16;;;;;;;11.75;3.30;;;;;;;;;;5054795;28;20095;-72
2022/01/18 01:51:47;;;;;;;14.65;4.35;;;;;;;;;;5054971;28;20029;-73
2022/01/18 01:54:14;;;;;;;13.68;4.25;;;;;;;;;;5054872;28;20100;-72
2022/01/18 01:56:42;;;;;;;18.00;4.47;;;;;;;;;;5054625;28;20028;-72
2022/01/18 01:59:10;;;;;;;15.38;4.13;;;;;;;;;;5054806;28;20024;-72
2022/01/18 02:01:46;;;;;;;14.77;4.43;;;;;;;;;;5053444;28;20079;-72
2022/01/18 02:04:13;;;;;;;12.95;4.00;;;;;;;;;;5054389;28;20033;-72
2022/01/18 02:06:41;;;;;;;11.05;4.13;;;;;;;;;;5053984;28;20031;-72
2022/01/18 02:09:08;;;;;;;13.02;4.22;;;;;;;;;;5054526;28;20100;-72
2022/01/18 02:11:36;;;;;;;13.93;4.10;;;;;;;;;;5053333;28;20374;-72
2022/01/18 02:14:05;;;;;;;13.57;4.00;;;;;;;;;;5054543;28;20047;-73
2022/01/18 02:22:07;;;;;;;13.60;4.32;;;;;;;;;;5054873;28;20092;-72
2022/01/18 02:24:34;;;;;;;12.55;4.47;;;;;;;;;;5054341;28;20029;-73
2022/01/18 02:27:01;;;;;;;13.65;4.40;;;;;;;;;;5054311;28;20048;-73
2022/01/18 02:29:28;;;;;;;18.42;5.25;;;;;;;;;;5052901;28;20036;-72
2022/01/18 02:31:56;;;;;;;16.90;5.53;;;;;;;;;;5052942;28;20025;-72
2022/01/18 02:34:43;;;;;;;16.55;5.28;;;;;;;;;;5054044;28;20037;-71
2022/01/18 02:37:14;;;;;;;14.30;5.30;;;;;;;;;;5053920;28;20108;-72
2022/01/18 02:39:42;;;;;;;;;;;;;;;;;;5054395;28;20024;-72
2022/01/18 02:42:11;;;;;;;15.07;5.45;;;;;;;;;;5053962;28;19905;-71
2022/01/18 02:44:38;;;;;;;11.63;5.03;;;;;;;;;;5053682;28;20058;-72
2022/01/18 02:47:06;;;;;;;15.25;5.88;;;;;;;;;;5053801;28;20108;-72
2022/01/18 02:49:33;;;;;;;13.23;4.93;;;;;;;;;;5053767;28;20025;-73
2022/01/18 02:52:01;;;;;;;14.40;5.28;;;;;;;;;;5053515;28;20027;-72
2022/01/18 02:54:28;;;;;;;12.95;5.15;;;;;;;;;;5053402;28;20104;-72
2022/01/18 02:57:00;;;;;;;13.15;5.40;;;;;;;;;;5052157;28;20405;-72
2022/01/18 03:04:46;;;;;;;12.38;5.30;;;;;;;;;;5052998;28;20134;-72
2022/01/18 03:07:13;;;;;;;14.63;5.72;;;;;;;;;;5053497;28;20055;-70
2022/01/18 03:09:40;;;;;;;13.73;5.35;;;;;;;;;;5053498;28;20100;-71
2022/01/18 03:12:08;;;;;;;14.57;5.93;;;;;;;;;;5053362;28;20021;-72
2022/01/18 03:14:36;;;;;;;15.60;5.93;;;;;;;;;;5051919;28;20028;-71
2022/01/18 03:17:03;;;;;;;12.35;5.22;;;;;;;;;;5053160;28;20078;-71
2022/01/18 03:19:30;;;;;;;12.35;5.25;;;;;;;;;;5053348;28;20017;-71
2022/01/18 03:21:58;;;;;;;10.73;5.15;;;;;;;;;;5053159;28;20036;-70
2022/01/18 03:29:38;;;;;;;11.30;4.65;;;;;;;;;;5053576;28;20532;-71
2022/01/18 03:32:05;;;;;;;12.27;4.63;;;;;;;;;;5052972;28;20090;-72
2022/01/18 03:34:33;;;;;;;9.90;5.15;;;;;;;;;;5053282;28;20104;-72
2022/01/18 03:37:00;;;;;;;14.25;5.78;;;;;;;;;;5053011;28;20033;-72
2022/01/18 03:39:27;;;;;;;12.40;5.32;;;;;;;;;;5051662;28;20048;-72
2022/01/18 03:42:04;;;;;;;10.30;4.45;;;;;;;;;;5053062;28;20025;-70
2022/01/18 03:44:31;;;;;;;12.88;4.80;;;;;;;;;;5052977;28;20021;-72
2022/01/18 03:46:58;;;;;;;8.82;4.63;;;;;;;;;;5051687;28;20036;-72
2022/01/18 03:49:27;;;;;;;9.27;4.30;;;;;;;;;;5052997;28;20021;-72
2022/01/18 03:51:54;;;;;;;9.25;4.60;;;;;;;;;;5053017;28;20017;-73
2022/01/18 03:54:23;;;;;;;9.25;3.95;;;;;;;;;;5052741;28;20021;-72
2022/01/18 03:56:51;;;;;;;9.82;4.40;;;;;;;;;;5052572;28;20439;-72
2022/01/18 03:59:18;;;;;;;10.30;3.83;;;;;;;;;;5051462;28;20025;-72
2022/01/18 04:01:45;;;;;;;7.72;2.88;;;;;;;;;;5052661;28;20029;-72
2022/01/18 04:04:12;;;;;;;7.07;3.10;;;;;;;;;;5052478;28;20413;-72
2022/01/18 04:06:39;;;;;;;8.70;2.53;;;;;;;;;;5052785;28;20021;-71
2022/01/18 04:09:06;;;;;;;7.97;2.80;;;;;;;;;;5052759;28;20025;-71
2022/01/18 04:11:34;;;;;;;6.82;2.50;;;;;;;;;;5052868;28;20370;-72
2022/01/18 04:14:01;;;;;;;9.35;2.83;;;;;;;;;;5052565;28;20053;-72
2022/01/18 04:16:28;;;;;;;7.40;2.50;;;;;;;;;;5052524;28;20083;-72
2022/01/18 04:19:11;;;;;;;8.45;2.70;;;;;;;;;;5052742;28;20021;-72
2022/01/18 04:27:08;;;;;;;8.40;3.03;;;;;;;;;;5052706;28;20569;-73
2022/01/18 04:29:35;;;;;;;6.20;2.78;;;;;;;;;;5051295;28;20057;-73
2022/01/18 04:32:03;;;;;;;8.07;2.53;;;;;;;;;;5056307;28;20021;-72
2022/01/18 04:34:30;;;;;;;7.68;3.05;;;;;;;;;;5055147;28;20025;-72
2022/01/18 04:36:57;;;;;;;6.55;2.20;;;;;;;;;;5054949;28;20035;-72
2022/01/18 04:39:24;;;;;;;6.82;2.70;;;;;;;;;;5056460;28;20021;-73
2022/01/18 04:41:51;;;;;;;7.97;3.00;;;;;;;;;;5055180;28;20025;-72
2022/01/18 04:49:49;;;;;;;4.00;2.00;;;;;;;;;;5056341;28;20079;-72
2022/01/18 04:52:17;;;;;;;5.65;2.45;;;;;;;;;;5056136;28;20025;-72
2022/01/18 04:54:46;;;;;;;6.85;2.60;;;;;;;;;;5054710;28;20024;-73
2022/01/18 04:59:41;;;;;;;7.07;2.88;;;;;;;;;;5055751;28;20538;-73
2022/01/18 05:02:08;;;;;;;7.72;2.25;;;;;;;;;;5054535;28;20025;-73
2022/01/18 05:04:35;;;;;;;4.13;2.22;;;;;;;;;;5055340;28;20108;-74
2022/01/18 05:07:02;;;;;;;5.35;1.90;;;;;;;;;;5055614;28;20052;-74
2022/01/18 05:09:29;;;;;;;6.38;2.70;;;;;;;;;;5055586;28;20074;-73
2022/01/18 05:12:06;;;;;;;6.80;2.47;;;;;;;;;;5055879;28;20604;-74
2022/01/18 05:14:35;;;;;;;7.82;2.40;;;;;;;;;;5055842;28;20032;-73
2022/01/18 05:18:09;;;;;;;5.72;2.05;;;;;;;;;;5055663;28;20033;-74
2022/01/18 05:20:24;;;;;;;6.65;2.13;;;;;;;;;;5058393;28;20029;-72
2022/01/18 05:23:02;;;;;;;6.38;2.00;;;;;;;;;;5055411;28;20453;-73
2022/01/18 05:25:29;;;;;;;10.20;2.38;;;;;;;;;;5055488;28;20484;-73
2022/01/18 05:28:00;;;;;;;6.78;2.05;;;;;;;;;;5055507;28;20542;-73
2022/01/18 05:30:31;;;;;;;8.07;2.40;;;;;;;;;;5055367;28;20053;-74
2022/01/18 05:32:57;;;;;;;;;;;;;;;;;;5056005;28;20029;-73
2022/01/18 05:35:24;;;;;;;5.93;2.17;;;;;;;;;;5055216;28;19936;-73
2022/01/18 05:37:52;;;;;;;7.03;2.60;;;;;;;;;;5055239;28;20032;-73
2022/01/18 05:40:20;;;;;;;8.00;2.78;;;;;;;;;;5053866;28;20059;-72
2022/01/18 05:42:47;;;;;;;8.18;2.80;;;;;;;;;;5052819;28;20025;-73
2022/01/18 05:45:15;;;;;;;7.63;3.15;;;;;;;;;;5055111;28;20017;-73
2022/01/18 05:47:42;;;;;;;7.63;2.70;;;;;;;;;;5055092;28;20025;-73
2022/01/18 05:50:10;;;;;;;9.25;3.00;;;;;;;;;;5055010;28;20025;-72
2022/01/18 05:52:37;;;;;;;6.95;2.67;;;;;;;;;;5055008;28;20397;-72
2022/01/18 05:55:05;;;;;;;8.10;3.17;;;;;;;;;;5054884;28;20520;-73
2022/01/18 05:57:32;;;;;;;6.72;2.60;;;;;;;;;;5053542;28;20029;-72
2022/01/18 06:00:05;;;;;;;9.95;3.00;;;;;;;;;;5054883;28;20390;-75
2022/01/18 06:02:43;;;;;;;9.30;3.40;;;;;;;;;;5053586;28;20027;-73
2022/01/18 06:07:57;;;;;;;8.77;2.90;;;;;;;;;;5054609;28;20039;-71
2022/01/18 06:10:24;;;;;;;7.50;3.53;;;;;;;;;;5054498;28;20478;-72
2022/01/18 06:12:51;;;;;;;8.85;3.35;;;;;;;;;;5054481;28;20029;-72
2022/01/18 06:15:18;;;;;;;5.47;2.97;;;;;;;;;;5054287;28;20460;-72
2022/01/18 06:17:46;;;;;;;8.00;2.95;;;;;;;;;;5054299;28;20029;-72
2022/01/18 06:20:13;;;;;;;6.50;2.70;;;;;;;;;;5054308;28;20017;-73
2022/01/18 06:22:40;;;;;;;7.70;2.80;;;;;;;;;;5053002;28;20024;-73
2022/01/18 06:25:08;;;;;;;6.97;2.50;;;;;;;;;;5054135;28;20032;-72
2022/01/18 06:27:35;;;;;;;7.65;2.83;;;;;;;;;;5054293;28;20029;-72
2022/01/18 06:30:02;;;;;;;5.57;2.83;;;;;;;;;;5052689;28;20032;-73
2022/01/18 06:32:30;;;;;;;9.70;3.38;;;;;;;;;;5052902;28;20112;-72
2022/01/18 06:34:57;;;;;;;7.03;2.85;;;;;;;;;;5053072;28;20113;-72
2022/01/18 06:37:24;;;;;;;9.15;3.05;;;;;;;;;;5054092;28;20370;-73
2022/01/18 06:39:53;;;;;;;6.75;3.30;;;;;;;;;;5054194;28;20028;-73
2022/01/18 06:42:21;;;;;;;6.90;3.08;;;;;;;;;;5053989;28;20021;-72
2022/01/18 06:44:48;;;;;;;8.02;3.60;;;;;;;;;;5053973;28;20021;-71
2022/01/18 06:47:15;;;;;;;6.20;3.10;;;;;;;;;;5052668;28;20028;-72
2022/01/18 06:49:42;;;;;;;9.40;3.58;;;;;;;;;;5052497;28;20040;-72
2022/01/18 06:52:09;;;;;;;4.38;2.45;;;;;;;;;;5052415;28;20029;-73
2022/01/18 06:54:36;;;;;;;4.80;2.53;;;;;;;;;;5053439;28;20452;-72
2022/01/18 06:57:04;;;;;;;4.35;1.90;;;;;;;;;;5053501;28;20060;-74
2022/01/18 06:59:31;;;;;;;4.45;1.80;;;;;;;;;;5052544;28;20025;-73
2022/01/18 07:01:58;;;;;;;5.22;2.28;;;;;;;;;;5053694;28;20075;-73
2022/01/18 07:04:25;;;;;;;5.32;2.58;;;;;;;;;;5052125;28;20037;-73
2022/01/18 07:06:53;;;;;;;5.75;2.40;;;;;;;;;;5052237;28;20116;-73
2022/01/18 07:09:23;;;;;;;6.90;2.70;;;;;;;;;;5053501;28;20036;-73
2022/01/18 07:11:57;;;;;;;6.25;3.03;;;;;;;;;;5053427;28;20049;-73
2022/01/18 07:14:24;;;;;;;5.40;3.60;;;;;;;;;;5053384;28;20025;-73
2022/01/18 07:16:52;;;;;;;5.95;3.90;;;;;;;;;;5053051;28;20040;-73
2022/01/18 07:19:19;;;;;;;5.45;3.25;;;;;;;;;;5053085;28;20096;-72
2022/01/18 07:21:46;;;;;;;5.60;3.97;;;;;;;;;;5053131;28;20490;-72
2022/01/18 07:24:18;;;;;;;7.10;3.60;;;;;;;;;;5053123;28;20013;-72
2022/01/18 07:26:46;;;;;;;7.28;4.22;;;;;;;;;;5051676;28;20082;-72
2022/01/18 07:29:14;;;;;;;9.18;4.85;;;;;;;;;;5051978;28;20056;-72
2022/01/18 07:31:41;;;;;;;7.32;4.57;;;;;;;;;;5052950;28;20431;-73
2022/01/18 07:34:09;;;;;;;10.35;4.88;;;;;;;;;;5053176;28;20056;-72
2022/01/18 07:36:36;;;;;;;12.15;5.15;;;;;;;;;;5052856;28;20036;-72
2022/01/18 07:39:03;;;;;;;11.38;6.20;;;;;;;;;;5053158;28;20027;-72
2022/01/18 07:41:30;;;;;;;11.50;6.05;;;;;;;;;;5053023;28;20028;-72
2022/01/18 07:43:58;;;;;;;15.98;6.68;;;;;;;;;;5051580;28;20024;-72
2022/01/18 07:46:25;;;;;;;10.27;6.82;;;;;;;;;;5052860;28;20021;-73
2022/01/18 07:48:52;;;;;;;13.10;7.78;;;;;;;;;;5052695;28;20040;-72
2022/01/18 07:51:20;;;;;;;16.17;8.52;;;;;;;;;;5052938;28;20069;-72
2022/01/18 07:53:47;;;;;;;19.95;9.52;;;;;;;;;;5052917;28;20496;-72
2022/01/18 07:56:14;;;;;;;22.90;9.35;;;;;;;;;;5053078;28;20328;-72
2022/01/18 07:58:41;;;;;;;21.85;10.40;;;;;;;;;;5052803;28;20032;-72
2022/01/18 08:01:08;;;;;;;24.15;13.45;;;;;;;;;;5051659;28;20017;-73
2022/01/18 08:03:35;;;;;;;20.63;10.52;;;;;;;;;;5052629;28;20159;-72
2022/01/18 08:06:03;;;;;;;20.75;10.20;;;;;;;;;;5055361;28;20045;-70
2022/01/18 08:08:30;;;;;;;25.95;11.32;;;;;;;;;;5056065;28;20477;-74
2022/01/18 08:10:57;;;;;;;21.77;9.75;;;;;;;;;;5056935;28;20032;-74
2022/01/18 08:13:29;;;;;;;21.33;10.13;;;;;;;;;;5055622;28;20056;-73
2022/01/18 08:16:09;;;;;;;25.65;10.63;;;;;;;;;;5056938;28;20052;-72
2022/01/18 08:18:36;;;;;;;24.98;10.48;;;;;;;;;;5056916;28;20214;-75
2022/01/18 08:21:04;;;;;;;30.65;13.00;;;;;;;;;;5056782;28;20023;-73
2022/01/18 08:23:31;;;;;;;34.03;13.45;;;;;;;;;;5056775;28;20430;-74
2022/01/18 08:26:00;;;;;;;32.13;11.95;;;;;;;;;;5056651;28;20021;-73
2022/01/18 08:28:27;;;;;;;25.38;11.40;;;;;;;;;;5056534;28;20033;-74
2022/01/18 08:30:54;;;;;;;28.75;12.02;;;;;;;;;;5055472;28;20109;-73
2022/01/18 08:33:21;;;;;;;28.13;12.00;;;;;;;;;;5056505;28;20024;-74
2022/01/18 08:35:48;;;;;;;24.77;11.77;;;;;;;;;;5055118;28;20067;-74
2022/01/18 08:38:15;;;;;;;26.25;13.10;;;;;;;;;;5054971;28;20549;-74
2022/01/18 08:40:42;;;;;;;33.85;14.32;;;;;;;;;;5056023;28;20013;-73
2022/01/18 08:43:10;;;;;;;31.98;14.00;;;;;;;;;;5054693;28;20021;-74
2022/01/18 08:45:37;;;;;;;30.00;12.95;;;;;;;;;;5056276;28;20021;-72
2022/01/18 08:48:07;;;;;;;25.83;12.95;;;;;;;;;;5054952;28;20082;-73
2022/01/18 08:50:34;;;;;;;;;;;;;;;;;;5056562;28;20033;-73
2022/01/18 08:53:01;;;;;;;34.85;14.02;;;;;;;;;;5056107;28;19911;-73
2022/01/18 08:55:29;;;;;;;33.75;16.35;;;;;;;;;;5056074;28;20028;-74
2022/01/18 08:57:56;;;;;;;34.17;14.32;;;;;;;;;;5055942;28;20207;-74
2022/01/18 09:00:23;;;;;;;29.55;14.73;;;;;;;;;;5054341;28;20029;-74
2022/01/18 09:02:51;;;;;;;32.53;15.40;;;;;;;;;;5054524;28;20421;-73
2022/01/18 09:05:22;;;;;;;28.42;15.18;;;;;;;;;;5055497;28;20076;-74
2022/01/18 09:07:49;;;;;;;29.58;14.48;;;;;;;;;;5054511;28;20035;-73
2022/01/18 09:10:16;;;;;;;31.90;15.32;;;;;;;;;;5054394;28;20025;-74
2022/01/18 09:12:44;;;;;;;35.97;15.43;;;;;;;;;;5055685;28;20447;-73
2022/01/18 09:15:12;;;;;;;33.47;15.70;;;;;;;;;;5054361;28;20025;-73
2022/01/18 09:17:40;;;;;;;29.80;15.45;;;;;;;;;;5055318;28;20060;-73
2022/01/18 09:20:08;;;;;;;37.85;16.95;;;;;;;;;;5054240;28;20036;-73
2022/01/18 09:22:38;;;;;;;33.75;15.68;;;;;;;;;;5055850;28;20386;-74
2022/01/18 09:25:07;;;;;;;39.83;17.10;;;;;;;;;;5055579;28;20481;-74
2022/01/18 09:27:34;;;;;;;36.35;16.25;;;;;;;;;;5055608;28;20029;-74
2022/01/18 09:30:02;;;;;;;34.17;17.33;;;;;;;;;;5055567;28;20022;-74
2022/01/18 09:32:29;;;;;;;32.95;16.27;;;;;;;;;;5055610;28;20025;-74
2022/01/18 09:34:56;;;;;;;35.88;16.80;;;;;;;;;;5055263;28;20025;-73
2022/01/18 09:37:23;;;;;;;27.60;16.23;;;;;;;;;;5055381;28;20453;-75
2022/01/18 09:39:53;;;;;;;30.95;15.10;;;;;;;;;;5055238;28;20488;-75
2022/01/18 09:42:21;;;;;;;31.45;16.42;;;;;;;;;;5055392;28;20021;-74
2022/01/18 09:44:49;;;;;;;29.83;14.90;;;;;;;;;;5054018;28;20025;-75
2022/01/18 09:47:16;;;;;;;30.63;15.85;;;;;;;;;;5055137;28;20059;-73
2022/01/18 09:49:43;;;;;;;26.13;14.63;;;;;;;;;;5053664;28;20027;-74
2022/01/18 09:52:10;;;;;;;28.70;15.73;;;;;;;;;;5053791;28;20124;-73
2022/01/18 09:54:38;;;;;;;27.30;15.77;;;;;;;;;;5053625;28;20045;-73
2022/01/18 09:57:05;;;;;;;31.77;16.92;;;;;;;;;;5054727;28;20024;-73
2022/01/18 09:59:32;;;;;;;34.47;17.70;;;;;;;;;;5054976;28;20100;-74
2022/01/18 10:02:02;;;;;;;34.33;16.02;;;;;;;;;;5054919;28;20421;-74
2022/01/18 10:04:31;;;;;;;34.25;16.58;;;;;;;;;;5053331;28;20056;-76
2022/01/18 10:06:59;;;;;;;33.97;16.95;;;;;;;;;;5053407;28;20402;-75
2022/01/18 10:09:27;;;;;;;30.70;15.73;;;;;;;;;;5054854;28;20052;-75
2022/01/18 10:12:10;;;;;;;38.58;17.15;;;;;;;;;;5053412;28;20021;-73
2022/01/18 10:14:41;;;;;;;34.58;16.05;;;;;;;;;;5053460;28;20381;-73
2022/01/18 10:17:10;;;;;;;32.03;15.60;;;;;;;;;;5053243;28;20033;-73
2022/01/18 10:19:47;;;;;;;33.70;15.35;;;;;;;;;;5053311;28;20033;-74
2022/01/18 10:22:16;;;;;;;32.78;15.20;;;;;;;;;;5054591;28;20043;-73
2022/01/18 10:24:44;;;;;;;31.25;15.13;;;;;;;;;;5054531;28;20032;-73
2022/01/18 10:27:13;;;;;;;34.20;15.68;;;;;;;;;;5052531;28;20112;-73
2022/01/18 10:29:52;;;;;;;35.05;15.52;;;;;;;;;;5054040;28;20102;-73
2022/01/18 10:35:10;;;;;;;35.58;15.73;;;;;;;;;;5054304;28;20040;-73
2022/01/18 10:37:36;;;;;;;32.90;14.73;;;;;;;;;;5053763;28;20040;-73
2022/01/18 10:40:08;;;;;;;29.40;14.25;;;;;;;;;;5052871;28;20021;-72
2022/01/18 10:42:41;;;;;;;29.60;14.65;;;;;;;;;;5054485;28;20021;-72
2022/01/18 10:45:12;;;;;;;31.48;14.23;;;;;;;;;;5054054;28;20020;-74
2022/01/18 10:47:38;;;;;;;;;;;;;;;;;;5054562;28;20489;-73
2022/01/18 10:50:13;;;;;;;30.33;14.32;;;;;;;;;;5053871;28;20263;-72
2022/01/18 10:52:40;;;;;;;26.05;13.40;;;;;;;;;;5052496;28;20099;-73
2022/01/18 10:58:14;;;;;;;20.15;11.20;;;;;;;;;;5053615;28;20074;-73
2022/01/18 11:00:40;;;;;;;;;;;;;;;;;;5052698;28;20112;-73
2022/01/18 11:03:09;;;;;;;21.60;10.95;;;;;;;;;;5053408;28;19905;-73
2022/01/18 11:05:39;;;;;;;24.92;11.10;;;;;;;;;;5052041;28;20043;-73
2022/01/18 11:08:07;;;;;;;19.20;10.13;;;;;;;;;;5053555;28;20060;-75
2022/01/18 11:10:35;;;;;;;30.70;11.82;;;;;;;;;;5053446;28;20029;-74
2022/01/18 11:13:06;;;;;;;23.67;10.98;;;;;;;;;;5053745;28;20067;-74
2022/01/18 11:15:36;;;;;;;26.45;11.50;;;;;;;;;;5052104;28;20379;-74
2022/01/18 11:18:07;;;;;;;25.95;11.82;;;;;;;;;;5053275;28;20025;-73
2022/01/18 11:20:42;;;;;;;26.40;12.07;;;;;;;;;;5052032;28;20025;-74
2022/01/18 11:23:09;;;;;;;27.88;11.23;;;;;;;;;;5053213;28;20482;-73
2022/01/18 11:25:38;;;;;;;24.52;11.30;;;;;;;;;;5053191;28;20445;-73
2022/01/18 11:28:06;;;;;;;27.27;11.57;;;;;;;;;;5053232;28;20029;-72
2022/01/18 11:30:34;;;;;;;33.67;10.95;;;;;;;;;;5053122;28;20024;-72
2022/01/18 11:33:03;;;;;;;25.55;11.55;;;;;;;;;;5053119;28;20024;-73
2022/01/18 11:35:34;;;;;;;29.30;11.23;;;;;;;;;;5051774;28;20060;-73
2022/01/18 11:38:15;;;;;;;29.30;11.30;;;;;;;;;;5053108;28;20178;-73
2022/01/18 11:40:49;;;;;;;38.33;10.32;;;;;;;;;;5051813;28;20108;-73
2022/01/18 11:43:34;;;;;;;25.17;10.02;;;;;;;;;;5052897;28;20029;-72
2022/01/18 11:46:01;;;;;;;25.92;9.57;;;;;;;;;;5051698;28;20113;-72
2022/01/18 11:48:28;;;;;;;33.08;9.20;;;;;;;;;;5052821;28;20056;-72
2022/01/18 11:51:05;;;;;;;23.73;8.75;;;;;;;;;;5052796;28;20025;-73
2022/01/18 11:54:16;;;;;;;28.85;10.10;;;;;;;;;;5051616;28;20568;-73
2022/01/18 11:56:36;;;;;;;27.63;9.40;;;;;;;;;;5052247;28;20417;-72
2022/01/18 11:59:12;;;;;;;29.13;9.20;;;;;;;;;;5051576;28;20371;-73
2022/01/18 12:01:54;;;;;;;27.33;9.60;;;;;;;;;;5052753;28;20021;-73
2022/01/18 12:07:11;;;;;;;29.50;9.65;;;;;;;;;;5052703;28;20029;-72
2022/01/18 12:09:39;;;;;;;26.23;9.52;;;;;;;;;;5052683;28;20112;-73
2022/01/18 12:12:09;;;;;;;24.90;8.65;;;;;;;;;;5052660;28;20094;-73
2022/01/18 12:14:36;;;;;;;28.02;10.07;;;;;;;;;;5051336;28;20025;-73
2022/01/18 12:17:18;;;;;;;26.60;8.80;;;;;;;;;;5052533;28;20021;-72
2022/01/18 12:19:47;;;;;;;24.25;9.45;;;;;;;;;;5051329;28;20041;-72
2022/01/18 12:22:15;;;;;;;31.90;10.55;;;;;;;;;;5051269;28;20083;-72
2022/01/18 12:24:46;;;;;;;28.10;9.25;;;;;;;;;;5051160;28;20052;-72
2022/01/18 12:27:43;;;;;;;32.53;9.00;;;;;;;;;;5051251;28;20029;-72
2022/01/18 12:30:26;;;;;;;25.83;9.10;;;;;;;;;;5046774;28;20493;-73
2022/01/18 12:33:11;;;;;;;29.80;9.63;;;;;;;;;;5052630;28;20160;-73
2022/01/18 12:35:38;;;;;;;25.45;9.45;;;;;;;;;;5052506;28;20021;-72
2022/01/18 12:38:10;;;;;;;29.02;9.43;;;;;;;;;;5052300;28;20098;-73
2022/01/18 12:40:43;;;;;;;24.90;8.63;;;;;;;;;;5052326;28;20482;-72
2022/01/18 12:45:40;;;;;;;30.27;8.25;;;;;;;;;;5052257;28;20162;-72
2022/01/18 12:48:13;;;;;;;26.52;8.80;;;;;;;;;;5051007;28;20029;-71
2022/01/18 12:50:43;;;;;;;28.17;8.73;;;;;;;;;;5052727;28;20417;-73
2022/01/18 12:53:11;;;;;;;27.90;8.30;;;;;;;;;;5055946;28;20029;-72
2022/01/18 12:55:46;;;;;;;22.90;8.15;;;;;;;;;;5055962;28;20320;-72
2022/01/18 12:58:16;;;;;;;25.20;7.70;;;;;;;;;;5055791;28;20114;-71
2022/01/18 13:00:45;;;;;;;25.30;8.45;;;;;;;;;;5055889;28;20019;-72
2022/01/18 13:03:23;;;;;;;23.35;8.18;;;;;;;;;;5054458;28;20031;-72
2022/01/18 13:05:52;;;;;;;24.02;8.38;;;;;;;;;;5055737;28;20056;-72
2022/01/18 13:08:20;;;;;;;23.55;7.80;;;;;;;;;;5054339;28;20057;-72
2022/01/18 13:10:51;;;;;;;27.90;7.55;;;;;;;;;;5055534;28;20053;-72
2022/01/18 13:13:21;;;;;;;32.40;7.85;;;;;;;;;;5054262;28;20032;-72
2022/01/18 13:16:03;;;;;;;29.03;7.97;;;;;;;;;;5055607;28;20017;-71
2022/01/18 13:26:34;;;;;;;30.60;6.97;;;;;;;;;;5055356;28;20048;-73
2022/01/18 13:29:10;;;;;;;33.50;7.10;;;;;;;;;;5054015;28;20027;-72
2022/01/18 13:31:38;;;;;;;24.63;7.07;;;;;;;;;;5054030;28;20060;-72
2022/01/18 13:34:05;;;;;;;22.33;7.28;;;;;;;;;;5055277;28;20025;-74
2022/01/18 13:36:33;;;;;;;26.20;7.18;;;;;;;;;;5055105;28;20104;-73
2022/01/18 13:39:19;;;;;;;25.70;6.88;;;;;;;;;;5055112;28;20056;-72
2022/01/18 13:41:46;;;;;;;21.70;6.13;;;;;;;;;;5055143;28;20100;-73
2022/01/18 13:44:13;;;;;;;23.65;6.70;;;;;;;;;;5054999;28;20478;-72
2022/01/18 13:46:40;;;;;;;18.52;5.65;;;;;;;;;;5054944;28;20032;-72
2022/01/18 13:49:08;;;;;;;20.90;5.88;;;;;;;;;;5054885;28;20393;-72
2022/01/18 13:51:35;;;;;;;22.75;7.47;;;;;;;;;;5054867;28;20028;-72
2022/01/18 13:54:06;;;;;;;23.55;5.70;;;;;;;;;;5054896;28;20067;-73
2022/01/18 13:56:33;;;;;;;20.95;5.70;;;;;;;;;;5054847;28;20543;-73
2022/01/18 13:59:08;;;;;;;28.45;6.47;;;;;;;;;;5053447;28;20029;-72
2022/01/18 14:01:41;;;;;;;16.58;4.93;;;;;;;;;;5054895;28;20058;-72
2022/01/18 14:04:19;;;;;;;22.30;6.03;;;;;;;;;;5052090;28;20115;-72
2022/01/18 14:06:49;;;;;;;20.70;5.93;;;;;;;;;;5054665;28;20037;-72
2022/01/18 14:09:16;;;;;;;16.60;5.60;;;;;;;;;;5054633;28;20044;-72
2022/01/18 14:11:53;;;;;;;18.80;5.32;;;;;;;;;;5054540;28;20055;-72
2022/01/18 14:14:29;;;;;;;20.58;5.78;;;;;;;;;;5053149;28;20036;-72
2022/01/18 14:16:58;;;;;;;14.73;5.57;;;;;;;;;;5054376;28;20025;-72
2022/01/18 14:19:35;;;;;;;15.68;5.38;;;;;;;;;;5053078;28;20028;-72
2022/01/18 14:22:23;;;;;;;18.42;5.10;;;;;;;;;;5054401;28;20493;-72
2022/01/18 14:24:58;;;;;;;12.45;4.50;;;;;;;;;;5053347;28;20473;-72
2022/01/18 14:27:28;;;;;;;19.92;5.75;;;;;;;;;;5054361;28;20025;-72
2022/01/18 14:30:02;;;;;;;20.00;5.25;;;;;;;;;;5054203;28;20133;-72
2022/01/18 14:32:32;;;;;;;17.38;5.25;;;;;;;;;;5054128;28;20025;-73
2022/01/18 14:35:04;;;;;;;15.80;5.45;;;;;;;;;;5054071;28;20096;-72
2022/01/18 14:37:35;;;;;;;20.30;4.93;;;;;;;;;;5052721;28;20031;-72
2022/01/18 14:40:05;;;;;;;18.48;5.55;;;;;;;;;;5052722;28;20111;-72
2022/01/18 14:42:40;;;;;;;17.88;4.95;;;;;;;;;;5054053;28;20025;-71
2022/01/18 14:45:30;;;;;;;17.20;5.22;;;;;;;;;;5052856;28;20440;-73
2022/01/18 14:47:55;;;;;;;16.35;5.68;;;;;;;;;;5053653;28;20051;-72
2022/01/18 14:50:23;;;;;;;19.30;5.45;;;;;;;;;;5053900;28;20029;-72
2022/01/18 14:52:51;;;;;;;16.92;5.72;;;;;;;;;;5053781;28;20025;-72
2022/01/18 14:55:20;;;;;;;21.10;4.80;;;;;;;;;;5053704;28;20474;-72
2022/01/18 14:57:47;;;;;;;19.33;5.68;;;;;;;;;;5052319;28;20028;-72
2022/01/18 15:00:16;;;;;;;16.17;4.65;;;;;;;;;;5053729;28;20021;-72
2022/01/18 15:02:43;;;;;;;20.92;5.40;;;;;;;;;;5052348;28;20021;-72
2022/01/18 15:05:10;;;;;;;20.58;4.97;;;;;;;;;;5053283;28;20125;-72
2022/01/18 15:07:38;;;;;;;16.55;5.00;;;;;;;;;;5052243;28;20036;-72
2022/01/18 15:10:06;;;;;;;13.55;4.03;;;;;;;;;;5052245;28;20078;-72
2022/01/18 15:12:37;;;;;;;18.67;4.88;;;;;;;;;;5053346;28;20028;-71
2022/01/18 15:15:04;;;;;;;15.15;4.88;;;;;;;;;;5053214;28;20029;-72
2022/01/18 15:17:32;;;;;;;14.27;4.50;;;;;;;;;;5053374;28;20025;-72
2022/01/18 15:19:59;;;;;;;19.98;4.95;;;;;;;;;;5053387;28;20021;-72
2022/01/18 15:22:27;;;;;;;14.80;4.20;;;;;;;;;;5053272;28;20021;-71
2022/01/18 15:24:55;;;;;;;13.43;3.60;;;;;;;;;;5053292;28;20023;-72
2022/01/18 15:27:22;;;;;;;17.98;4.90;;;;;;;;;;5053163;28;20021;-72
2022/01/18 15:29:49;;;;;;;16.83;4.40;;;;;;;;;;5051941;28;20028;-72
2022/01/18 15:32:17;;;;;;;18.60;4.70;;;;;;;;;;5053154;28;20039;-72
2022/01/18 15:34:44;;;;;;;16.55;5.13;;;;;;;;;;5053157;28;20074;-72
2022/01/18 15:37:11;;;;;;;17.42;4.30;;;;;;;;;;5053024;28;20033;-71
2022/01/18 15:39:39;;;;;;;23.25;4.90;;;;;;;;;;5051833;28;20021;-72
2022/01/18 15:42:06;;;;;;;17.10;4.60;;;;;;;;;;5052996;28;20017;-72
2022/01/18 15:44:33;;;;;;;17.85;5.15;;;;;;;;;;5052963;28;20017;-72
2022/01/18 15:47:00;;;;;;;15.45;5.15;;;;;;;;;;5053001;28;20074;-72
2022/01/18 15:49:27;;;;;;;17.67;4.88;;;;;;;;;;5052916;28;20036;-72
2022/01/18 15:51:54;;;;;;;13.93;5.03;;;;;;;;;;5052919;28;20035;-72
2022/01/18 15:54:22;;;;;;;18.40;4.97;;;;;;;;;;5052909;28;20498;-72
2022/01/18 15:56:49;;;;;;;19.10;4.60;;;;;;;;;;5052781;28;20128;-72
2022/01/18 15:59:17;;;;;;;17.55;5.30;;;;;;;;;;5051555;28;20044;-71
2022/01/18 16:01:45;;;;;;;14.32;4.90;;;;;;;;;;5052843;28;20359;-72
2022/01/18 16:04:12;;;;;;;16.40;5.43;;;;;;;;;;5052615;28;20108;-72
2022/01/18 16:06:39;;;;;;;21.95;4.85;;;;;;;;;;5051537;28;20087;-72
2022/01/18 16:09:07;;;;;;;17.85;4.20;;;;;;;;;;5052786;28;20366;-72
2022/01/18 16:11:35;;;;;;;14.65;4.40;;;;;;;;;;5052777;28;20025;-71